createdAt,value
2018-09-11T00:01:52.629Z,50.20
2018-09-11T00:04:21.498Z,50.50
2018-09-11T00:06:50.406Z,51.40
2018-09-11T00:09:19.392Z,50.30
2018-09-11T00:11:48.305Z,51.30
2018-09-11T00:14:17.170Z,51.50
2018-09-11T00:16:46.062Z,51.60
2018-09-11T00:19:15.010Z,51.90
2018-09-11T00:21:43.870Z,52.10
2018-09-11T00:24:12.775Z,51.60
2018-09-11T00:26:41.686Z,51.20
2018-09-11T00:29:10.553Z,50.80
2018-09-11T00:31:39.501Z,51.20
2018-09-11T00:34:09.430Z,52.50
2018-09-11T00:36:38.364Z,53.40
2018-09-11T00:39:08.010Z,53.70
2018-09-11T00:41:36.891Z,55.90
2018-09-11T00:44:05.806Z,56.40
2018-09-11T00:46:34.705Z,57.70
2018-09-11T00:49:03.578Z,57.00
2018-09-11T00:51:32.909Z,57.30
2018-09-11T00:54:01.782Z,56.90
2018-09-11T00:56:30.654Z,56.50
2018-09-11T00:58:59.527Z,56.70
2018-09-11T01:01:28.412Z,56.60
2018-09-11T01:03:57.286Z,55.80
2018-09-11T01:06:26.196Z,55.00
2018-09-11T01:08:55.070Z,54.60
2018-09-11T01:11:23.990Z,55.30
2018-09-11T01:13:52.938Z,55.90
2018-09-11T01:16:21.881Z,58.50
2018-09-11T01:18:50.754Z,58.20
2018-09-11T01:21:19.646Z,58.90
2018-09-11T01:23:48.514Z,60.10
2018-09-11T01:26:17.417Z,60.00
2018-09-11T01:28:46.291Z,60.30
2018-09-11T01:31:15.173Z,60.50
2018-09-11T01:33:44.050Z,61.00
2018-09-11T01:36:12.979Z,61.80
2018-09-11T01:38:41.882Z,61.00
2018-09-11T01:41:10.761Z,60.50
2018-09-11T01:43:39.642Z,61.70
2018-09-11T01:46:08.571Z,62.20
2018-09-11T01:48:37.461Z,62.20
2018-09-11T01:51:06.746Z,61.10
2018-09-11T01:53:35.634Z,60.60
2018-09-11T01:56:04.546Z,60.60
2018-09-11T01:58:33.440Z,61.70
2018-09-11T02:01:02.333Z,61.30
2018-09-11T02:03:31.203Z,61.80
2018-09-11T02:06:00.086Z,62.90
2018-09-11T02:08:28.968Z,64.00
2018-09-11T02:10:57.846Z,64.70
2018-09-11T02:13:26.718Z,66.00
2018-09-11T02:15:55.618Z,65.10
2018-09-11T02:18:24.489Z,64.30
2018-09-11T02:20:53.390Z,64.30
2018-09-11T02:23:22.266Z,65.30
2018-09-11T02:25:51.149Z,66.70
2018-09-11T02:28:20.010Z,66.80
2018-09-11T02:30:48.942Z,66.70
2018-09-11T02:33:17.822Z,65.40
2018-09-11T02:35:46.762Z,66.10
2018-09-11T02:38:15.690Z,66.20
2018-09-11T02:40:44.638Z,65.20
2018-09-11T02:43:13.594Z,65.40
2018-09-11T02:45:42.486Z,66.60
2018-09-11T02:48:11.358Z,66.60
2018-09-11T02:50:40.242Z,66.70
2018-09-11T02:53:09.110Z,66.70
2018-09-11T02:55:38.003Z,66.90
2018-09-11T02:58:06.990Z,67.90
2018-09-11T03:00:35.875Z,68.00
2018-09-11T03:03:04.823Z,69.50
2018-09-11T03:05:33.714Z,70.10
2018-09-11T03:08:02.582Z,71.50
2018-09-11T03:10:31.466Z,72.90
2018-09-11T03:13:00.341Z,74.10
2018-09-11T03:15:29.216Z,73.80
2018-09-11T03:17:58.090Z,72.90
2018-09-11T03:20:27.041Z,72.50
2018-09-11T03:22:55.910Z,72.70
2018-09-11T03:25:24.821Z,72.90
2018-09-11T03:27:53.688Z,73.30
2018-09-11T03:30:22.640Z,72.70
2018-09-11T03:32:51.520Z,73.60
2018-09-11T03:35:20.417Z,73.80
2018-09-11T03:37:49.290Z,73.20
2018-09-11T03:40:18.206Z,75.30
2018-09-11T03:42:47.226Z,75.30
2018-09-11T03:45:16.146Z,75.70
2018-09-11T03:47:45.211Z,77.10
2018-09-11T03:50:14.099Z,79.70
2018-09-11T03:52:42.979Z,80.10
2018-09-11T03:55:11.903Z,80.30
2018-09-11T03:57:40.801Z,80.20
2018-09-11T04:00:09.701Z,80.20
2018-09-11T04:02:38.574Z,79.60
2018-09-11T04:05:07.442Z,78.30
2018-09-11T04:07:36.338Z,77.50
2018-09-11T04:10:05.423Z,78.10
2018-09-11T04:12:34.325Z,75.30
2018-09-11T04:15:03.341Z,75.20
2018-09-11T04:17:36.362Z,75.10
2018-09-11T04:20:05.777Z,75.10
2018-09-11T04:22:34.731Z,75.10
2018-09-11T04:25:03.696Z,76.90
2018-09-11T04:27:32.702Z,77.60
2018-09-11T04:30:01.568Z,78.50
2018-09-11T04:32:30.473Z,79.20
2018-09-11T04:34:59.335Z,80.50
2018-09-11T04:37:28.278Z,79.30
2018-09-11T04:39:57.154Z,77.70
2018-09-11T04:42:26.335Z,77.10
2018-09-11T04:44:55.235Z,78.70
2018-09-11T04:47:24.126Z,79.40
2018-09-11T04:49:53.037Z,79.60
2018-09-11T04:52:21.959Z,81.50
2018-09-11T04:54:50.838Z,82.90
2018-09-11T04:57:19.743Z,83.70
2018-09-11T04:59:48.715Z,82.60
2018-09-11T05:02:17.619Z,80.90
2018-09-11T05:04:46.707Z,82.10
2018-09-11T05:07:15.595Z,81.00
2018-09-11T05:09:44.492Z,80.90
2018-09-11T05:12:13.390Z,79.90
2018-09-11T05:14:42.286Z,78.00
2018-09-11T05:17:11.203Z,77.60
2018-09-11T05:19:40.070Z,77.50
2018-09-11T05:22:08.953Z,78.40
2018-09-11T05:24:37.821Z,77.90
2018-09-11T05:27:07.134Z,79.90
2018-09-11T05:29:36.014Z,81.70
2018-09-11T05:32:04.911Z,81.40
2018-09-11T05:34:33.770Z,80.70
2018-09-11T05:37:02.689Z,79.60
2018-09-11T05:39:31.547Z,79.00
2018-09-11T05:42:00.451Z,79.10
2018-09-11T05:44:29.318Z,78.10
2018-09-11T05:46:58.224Z,76.30
2018-09-11T05:49:27.101Z,75.40
2018-09-11T05:51:55.986Z,75.30
2018-09-11T05:54:24.942Z,75.40
2018-09-11T05:56:53.805Z,73.40
2018-09-11T05:59:22.709Z,72.20
2018-09-11T06:01:51.650Z,71.30
2018-09-11T06:04:20.526Z,70.00
2018-09-11T06:06:49.434Z,69.10
2018-09-11T06:09:18.322Z,68.00
2018-09-11T06:11:47.241Z,67.30
2018-09-11T06:14:16.110Z,66.80
2018-09-11T06:16:45.003Z,65.20
2018-09-11T06:19:13.890Z,64.90
2018-09-11T06:21:42.818Z,63.40
2018-09-11T06:24:11.681Z,62.70
2018-09-11T06:26:40.676Z,62.90
2018-09-11T06:29:09.672Z,63.00
2018-09-11T06:31:38.570Z,62.40
2018-09-11T06:34:07.598Z,61.10
2018-09-11T06:36:36.626Z,62.40
2018-09-11T06:39:07.450Z,62.90
2018-09-11T06:41:36.362Z,62.60
2018-09-11T06:44:05.247Z,61.50
2018-09-11T06:46:34.599Z,61.50
2018-09-11T06:49:04.003Z,61.50
2018-09-11T06:51:33.121Z,61.60
2018-09-11T06:54:02.110Z,61.00
2018-09-11T06:56:30.985Z,59.60
2018-09-11T06:58:59.904Z,58.80
2018-09-11T07:01:28.776Z,57.60
2018-09-11T07:03:57.661Z,57.00
2018-09-11T07:06:26.583Z,56.50
2018-09-11T07:08:55.647Z,56.30
2018-09-11T07:11:24.789Z,57.20
2018-09-11T07:13:53.678Z,56.50
2018-09-11T07:16:22.572Z,56.10
2018-09-11T07:18:51.470Z,55.10
2018-09-11T07:21:20.373Z,54.60
2018-09-11T07:23:49.259Z,53.10
2018-09-11T07:26:18.156Z,52.70
2018-09-11T07:28:47.050Z,52.20
2018-09-11T07:31:15.977Z,51.50
2018-09-11T07:33:45.002Z,50.90
2018-09-11T07:36:14.344Z,51.30
2018-09-11T07:38:43.231Z,51.80
2018-09-11T07:41:12.119Z,50.30
2018-09-11T07:43:41.002Z,49.50
2018-09-11T07:46:09.919Z,48.40
2018-09-11T07:48:38.798Z,47.90
2018-09-11T07:51:07.778Z,47.10
2018-09-11T07:53:36.670Z,47.00
2018-09-11T07:56:05.567Z,46.30
2018-09-11T07:58:34.435Z,46.00
2018-09-11T08:01:03.331Z,44.30
2018-09-11T08:03:32.194Z,45.40
2018-09-11T08:06:01.077Z,44.30
2018-09-11T08:08:30.010Z,43.30
2018-09-11T08:10:58.906Z,44.00
2018-09-11T08:13:27.775Z,42.60
2018-09-11T08:15:56.663Z,40.90
2018-09-11T08:18:25.578Z,40.50
2018-09-11T08:20:54.455Z,39.80
2018-09-11T08:23:23.339Z,40.80
2018-09-11T08:25:52.190Z,39.10
2018-09-11T08:28:21.067Z,38.60
2018-09-11T08:30:49.974Z,37.30
2018-09-11T08:33:18.891Z,37.60
2018-09-11T08:35:47.770Z,36.80
2018-09-11T08:38:16.670Z,36.50
2018-09-11T08:40:45.562Z,36.60
2018-09-11T08:43:14.446Z,37.20
2018-09-11T08:45:43.326Z,36.10
2018-09-11T08:48:12.228Z,36.00
2018-09-11T08:50:41.102Z,34.50
2018-09-11T08:53:10.003Z,34.40
2018-09-11T08:55:38.879Z,32.10
2018-09-11T08:58:07.761Z,31.00
2018-09-11T09:00:36.639Z,31.30
2018-09-11T09:03:05.770Z,29.80
2018-09-11T09:05:34.641Z,29.90
2018-09-11T09:08:03.534Z,28.80
2018-09-11T09:10:32.397Z,28.70
2018-09-11T09:13:01.283Z,27.70
2018-09-11T09:15:30.171Z,26.80
2018-09-11T09:17:59.054Z,26.50
2018-09-11T09:20:27.910Z,26.70
2018-09-11T09:22:56.794Z,26.80
2018-09-11T09:25:25.654Z,25.70
2018-09-11T09:27:54.534Z,25.90
2018-09-11T09:30:23.403Z,25.70
2018-09-11T09:32:52.282Z,25.70
2018-09-11T09:35:21.133Z,24.70
2018-09-11T09:37:50.005Z,25.30
2018-09-11T09:40:18.916Z,25.10
2018-09-11T09:42:47.928Z,24.40
2018-09-11T09:45:16.851Z,23.40
2018-09-11T09:47:45.791Z,24.30
2018-09-11T09:50:14.706Z,23.40
2018-09-11T09:52:43.602Z,24.40
2018-09-11T09:55:15.578Z,22.80
2018-09-11T09:57:44.462Z,23.40
2018-09-11T10:00:17.798Z,22.10
2018-09-11T10:02:46.678Z,21.10
2018-09-11T10:05:15.572Z,21.80
2018-09-11T10:07:44.459Z,22.30
2018-09-11T10:10:13.354Z,22.50
2018-09-11T10:12:42.291Z,22.40
2018-09-11T10:15:12.046Z,22.20
2018-09-11T10:17:41.029Z,22.20
2018-09-11T10:20:09.854Z,22.30
2018-09-11T10:22:38.726Z,21.40
2018-09-11T10:25:07.659Z,22.30
2018-09-11T10:27:36.603Z,21.20
2018-09-11T10:30:05.582Z,20.50
2018-09-11T10:32:34.450Z,20.70
2018-09-11T10:35:03.362Z,21.10
2018-09-11T10:37:32.235Z,21.20
2018-09-11T10:40:01.122Z,20.40
2018-09-11T10:42:30.051Z,19.30
2018-09-11T10:44:58.971Z,19.00
2018-09-11T10:47:27.991Z,19.30
2018-09-11T10:49:56.886Z,19.90
2018-09-11T10:52:25.754Z,19.50
2018-09-11T10:54:54.634Z,18.80
2018-09-11T10:57:23.505Z,18.60
2018-09-11T10:59:52.410Z,16.50
2018-09-11T11:02:21.283Z,16.30
2018-09-11T11:04:50.162Z,16.60
2018-09-11T11:07:19.063Z,15.40
2018-09-11T11:09:47.940Z,15.40
2018-09-11T11:12:16.862Z,14.50
2018-09-11T11:14:45.858Z,15.40
2018-09-11T11:17:14.754Z,15.80
2018-09-11T11:19:43.656Z,15.80
2018-09-11T11:22:12.542Z,16.30
2018-09-11T11:24:41.423Z,15.40
2018-09-11T11:27:10.386Z,14.80
2018-09-11T11:29:39.175Z,13.70
2018-09-11T11:32:08.058Z,12.90
2018-09-11T11:34:36.944Z,13.00
2018-09-11T11:37:05.982Z,12.50
2018-09-11T11:39:34.718Z,12.00
2018-09-11T11:42:03.618Z,12.90
2018-09-11T11:44:32.502Z,12.10
2018-09-11T11:47:01.388Z,12.20
2018-09-11T11:49:30.271Z,11.80
2018-09-11T11:51:59.143Z,11.80
2018-09-11T11:54:28.031Z,12.00
2018-09-11T11:56:56.963Z,12.30
2018-09-11T11:59:25.839Z,11.80
2018-09-11T12:01:54.721Z,11.90
2018-09-11T12:04:23.726Z,12.30
2018-09-11T12:09:27.711Z,12.80
2018-09-11T12:11:56.633Z,12.60
2018-09-11T12:14:25.513Z,12.70
2018-09-11T12:16:54.670Z,12.90
2018-09-11T12:19:23.587Z,11.10
2018-09-11T12:21:52.453Z,10.60
2018-09-11T12:24:21.339Z,10.60
2018-09-11T12:26:50.281Z,11.30
2018-09-11T12:29:19.114Z,11.00
2018-09-11T12:31:47.994Z,11.10
2018-09-11T12:34:16.866Z,10.90
2018-09-11T12:36:45.766Z,10.70
2018-09-11T12:39:14.710Z,10.10
2018-09-11T12:41:43.626Z,10.50
2018-09-11T12:44:12.535Z,10.40
2018-09-11T12:46:41.844Z,9.70
2018-09-11T12:49:10.299Z,9.30
2018-09-11T12:51:39.204Z,9.20
2018-09-11T12:54:08.338Z,9.20
2018-09-11T12:56:37.228Z,9.30
2018-09-11T12:59:06.103Z,9.30
2018-09-11T13:01:34.982Z,7.20
2018-09-11T13:04:03.886Z,7.40
2018-09-11T13:06:32.765Z,7.90
2018-09-11T13:09:01.642Z,8.10
2018-09-11T13:11:30.527Z,7.50
2018-09-11T13:13:59.401Z,7.60
2018-09-11T13:16:28.294Z,8.10
2018-09-11T13:18:57.162Z,8.30
2018-09-11T13:21:26.046Z,7.20
2018-09-11T13:23:54.915Z,6.10
2018-09-11T13:26:23.794Z,6.00
2018-09-11T13:28:52.749Z,5.70
2018-09-11T13:31:21.646Z,6.50
2018-09-11T13:33:50.548Z,5.90
2018-09-11T13:36:19.379Z,4.80
2018-09-11T13:38:48.298Z,5.40
2018-09-11T13:41:17.211Z,5.30
2018-09-11T13:43:46.095Z,4.60
2018-09-11T13:46:15.026Z,4.50
2018-09-11T13:48:43.930Z,5.80
2018-09-11T13:51:12.864Z,4.10
2018-09-11T13:53:41.726Z,4.30
2018-09-11T13:56:10.611Z,4.40
2018-09-11T13:58:39.594Z,4.40
2018-09-11T14:01:08.607Z,4.60
2018-09-11T14:03:37.472Z,3.30
2018-09-11T14:06:06.383Z,2.90
2018-09-11T14:08:35.345Z,2.30
2018-09-11T14:11:04.209Z,3.30
2018-09-11T14:13:33.117Z,3.00
2018-09-11T14:16:02.002Z,2.40
2018-09-11T14:18:30.852Z,2.40
2018-09-11T14:20:59.810Z,3.00
2018-09-11T14:23:28.685Z,3.40
2018-09-11T14:26:00.547Z,3.60
2018-09-11T14:28:29.418Z,3.30
2018-09-11T14:30:58.288Z,3.30
2018-09-11T14:33:27.154Z,3.50
2018-09-11T14:35:56.028Z,3.10
2018-09-11T14:38:24.886Z,2.20
2018-09-11T14:40:53.782Z,2.10
2018-09-11T14:43:22.772Z,2.20
2018-09-11T14:45:51.654Z,2.10
2018-09-11T14:48:20.546Z,1.70
2018-09-11T14:50:49.433Z,2.10
2018-09-11T14:53:18.334Z,2.10
2018-09-11T14:55:47.276Z,2.10
2018-09-11T14:58:22.854Z,2.90
2018-09-11T15:00:51.740Z,1.90
2018-09-11T15:03:20.603Z,1.20
2018-09-11T15:05:49.490Z,1.30
2018-09-11T15:08:18.410Z,1.00
2018-09-11T15:10:47.326Z,1.30
2018-09-11T15:13:16.191Z,1.80
2018-09-11T15:15:45.097Z,1.80
2018-09-11T15:18:13.992Z,2.10
2018-09-11T15:20:42.991Z,2.80
2018-09-11T15:23:11.862Z,2.30
2018-09-11T15:25:40.746Z,2.80
2018-09-11T15:28:09.754Z,3.70
2018-09-11T15:30:38.641Z,3.80
2018-09-11T15:33:07.911Z,4.20
2018-09-11T15:35:36.802Z,3.90
2018-09-11T15:38:05.663Z,4.20
2018-09-11T15:40:34.552Z,3.80
2018-09-11T15:43:03.563Z,4.00
2018-09-11T15:45:32.454Z,3.90
2018-09-11T15:48:01.327Z,2.60
2018-09-11T15:50:30.222Z,3.60
2018-09-11T15:52:59.082Z,3.60
2018-09-11T15:55:27.979Z,3.90
2018-09-11T15:57:56.848Z,4.80
2018-09-11T16:00:25.736Z,4.40
2018-09-11T16:02:54.594Z,4.70
2018-09-11T16:05:23.481Z,4.70
2018-09-11T16:07:52.345Z,4.10
2018-09-11T16:10:21.386Z,5.20
2018-09-11T16:12:50.246Z,5.30
2018-09-11T16:15:19.158Z,5.00
2018-09-11T16:17:48.047Z,4.50
2018-09-11T16:20:16.941Z,4.70
2018-09-11T16:22:45.833Z,5.20
2018-09-11T16:25:14.775Z,5.90
2018-09-11T16:27:43.798Z,6.10
2018-09-11T16:30:12.882Z,5.40
2018-09-11T16:32:41.823Z,4.60
2018-09-11T16:35:10.694Z,4.20
2018-09-11T16:37:39.554Z,4.20
2018-09-11T16:40:08.513Z,4.90
2018-09-11T16:42:37.421Z,5.20
2018-09-11T16:45:06.778Z,5.50
2018-09-11T16:47:35.638Z,5.80
2018-09-11T16:50:04.586Z,5.80
2018-09-11T16:52:33.450Z,6.20
2018-09-11T16:55:02.347Z,6.40
2018-09-11T16:57:31.562Z,7.00
2018-09-11T17:00:00.435Z,7.40
2018-09-11T17:02:29.326Z,7.80
2018-09-11T17:04:58.190Z,7.70
2018-09-11T17:07:27.055Z,8.50
2018-09-11T17:09:55.955Z,8.80
2018-09-11T17:12:24.839Z,8.90
2018-09-11T17:14:53.801Z,9.10
2018-09-11T17:17:22.563Z,9.50
2018-09-11T17:19:51.593Z,9.50
2018-09-11T17:22:20.430Z,9.60
2018-09-11T17:24:49.330Z,9.90
2018-09-11T17:27:18.274Z,10.10
2018-09-11T17:29:47.099Z,10.40
2018-09-11T17:32:15.978Z,11.30
2018-09-11T17:34:44.882Z,11.20
2018-09-11T17:37:13.775Z,11.20
2018-09-11T17:39:42.637Z,11.70
2018-09-11T17:42:11.554Z,11.50
2018-09-11T17:44:40.479Z,12.40
2018-09-11T17:47:09.375Z,12.00
2018-09-11T17:49:38.279Z,12.50
2018-09-11T17:52:07.162Z,13.70
2018-09-11T17:54:36.040Z,14.50
2018-09-11T17:57:04.934Z,14.60
2018-09-11T17:59:33.810Z,15.00
2018-09-11T18:02:02.807Z,15.20
2018-09-11T18:04:31.669Z,15.70
2018-09-11T18:07:00.558Z,16.00
2018-09-11T18:09:29.417Z,15.80
2018-09-11T18:11:58.331Z,15.90
2018-09-11T18:14:27.202Z,16.30
2018-09-11T18:16:56.080Z,16.60
2018-09-11T18:19:24.941Z,16.90
2018-09-11T18:21:53.822Z,17.10
2018-09-11T18:24:22.735Z,17.60
2018-09-11T18:26:51.605Z,17.90
2018-09-11T18:29:20.478Z,18.70
2018-09-11T18:31:49.371Z,18.80
2018-09-11T18:34:18.302Z,19.30
2018-09-11T18:36:47.270Z,19.60
2018-09-11T18:39:16.099Z,20.50
2018-09-11T18:41:45.006Z,20.80
2018-09-11T18:44:13.898Z,20.70
2018-09-11T18:46:42.837Z,20.70
2018-09-11T18:49:11.723Z,20.60
2018-09-11T18:51:40.659Z,21.00
2018-09-11T18:54:09.578Z,21.60
2018-09-11T18:56:38.462Z,21.90
2018-09-11T18:59:07.359Z,21.70
2018-09-11T19:01:36.235Z,22.40
2018-09-11T19:04:05.118Z,22.50
2018-09-11T19:06:34.010Z,22.80
2018-09-11T19:09:02.923Z,22.70
2018-09-11T19:11:31.815Z,23.50
2018-09-11T19:14:00.719Z,23.70
2018-09-11T19:16:29.677Z,23.80
2018-09-11T19:18:58.489Z,24.90
2018-09-11T19:21:27.386Z,24.70
2018-09-11T19:23:56.267Z,25.10
2018-09-11T19:26:25.162Z,25.50
2018-09-11T19:28:54.062Z,25.50
2018-09-11T19:31:24.886Z,26.10
2018-09-11T19:33:53.786Z,26.80
2018-09-11T19:36:22.767Z,26.80
2018-09-11T19:38:51.658Z,26.80
2018-09-11T19:41:20.579Z,26.80
2018-09-11T19:43:49.452Z,26.70
2018-09-11T19:46:18.370Z,26.90
2018-09-11T19:48:47.439Z,27.00
2018-09-11T19:51:16.491Z,27.30
2018-09-11T19:53:45.399Z,27.20
2018-09-11T19:56:14.290Z,26.90
2018-09-11T19:58:43.190Z,27.50
2018-09-11T20:01:12.095Z,27.40
2018-09-11T20:03:47.586Z,28.20
2018-09-11T20:06:16.495Z,27.50
2018-09-11T20:08:45.402Z,27.60
2018-09-11T20:11:14.386Z,28.30
2018-09-11T20:13:43.279Z,28.00
2018-09-11T20:16:12.204Z,27.80
2018-09-11T20:18:41.131Z,28.20
2018-09-11T20:21:09.999Z,28.30
2018-09-11T20:23:38.946Z,28.80
2018-09-11T20:26:07.846Z,28.70
2018-09-11T20:28:36.722Z,29.00
2018-09-11T20:31:05.861Z,30.30
2018-09-11T20:33:34.756Z,29.90
2018-09-11T20:36:03.675Z,30.30
2018-09-11T20:38:32.570Z,30.10
2018-09-11T20:41:01.482Z,30.20
2018-09-11T20:43:30.373Z,30.90
2018-09-11T20:45:59.262Z,32.40
2018-09-11T20:48:28.132Z,33.90
2018-09-11T20:50:57.019Z,33.70
2018-09-11T20:53:25.916Z,33.30
2018-09-11T20:55:55.031Z,33.20
2018-09-11T20:58:28.143Z,33.70
2018-09-11T21:00:57.187Z,33.70
2018-09-11T21:03:26.166Z,33.60
2018-09-11T21:05:55.074Z,34.10
2018-09-11T21:08:23.978Z,34.10
2018-09-11T21:10:52.978Z,35.50
2018-09-11T21:13:21.847Z,34.80
2018-09-11T21:15:50.742Z,34.20
2018-09-11T21:18:19.621Z,33.50
2018-09-11T21:20:48.517Z,34.20
2018-09-11T21:23:17.583Z,33.70
2018-09-11T21:25:46.503Z,34.30
2018-09-11T21:28:15.419Z,34.40
2018-09-11T21:30:44.366Z,35.10
2018-09-11T21:33:13.259Z,35.20
2018-09-11T21:35:42.153Z,35.80
2018-09-11T21:38:11.046Z,36.80
2018-09-11T21:40:39.942Z,36.20
2018-09-11T21:43:08.804Z,37.10
2018-09-11T21:45:38.729Z,37.20
2018-09-11T21:48:07.614Z,38.10
2018-09-11T21:50:36.506Z,38.30
2018-09-11T21:53:05.422Z,37.60
2018-09-11T21:55:34.306Z,37.70
2018-09-11T21:58:03.214Z,36.80
2018-09-11T22:00:32.123Z,37.60
2018-09-11T22:03:04.011Z,37.70
2018-09-11T22:05:32.964Z,37.30
2018-09-11T22:08:01.822Z,37.30
2018-09-11T22:10:30.737Z,36.70
2018-09-11T22:12:59.658Z,36.60
2018-09-11T22:15:28.522Z,37.00
2018-09-11T22:17:57.406Z,37.00
2018-09-11T22:20:26.290Z,37.50
2018-09-11T22:22:55.170Z,38.60
2018-09-11T22:25:24.050Z,38.50
2018-09-11T22:27:52.942Z,38.90
2018-09-11T22:30:21.802Z,38.40
2018-09-11T22:32:50.682Z,38.20
2018-09-11T22:35:19.595Z,38.20
2018-09-11T22:37:48.466Z,39.00
2018-09-11T22:40:17.522Z,38.90
2018-09-11T22:42:46.455Z,38.80
2018-09-11T22:45:15.518Z,39.00
2018-09-11T22:47:44.415Z,39.10
2018-09-11T22:50:13.482Z,38.40
2018-09-11T22:52:42.474Z,38.30
2018-09-11T22:55:11.366Z,38.50
2018-09-11T22:57:40.294Z,38.00
2018-09-11T23:00:09.263Z,39.30
2018-09-11T23:02:38.252Z,39.10
2018-09-11T23:05:07.146Z,39.30
2018-09-11T23:07:36.070Z,40.70
2018-09-11T23:10:05.218Z,40.70
2018-09-11T23:12:34.193Z,40.70
2018-09-11T23:15:03.085Z,41.30
2018-09-11T23:17:31.984Z,40.80
2018-09-11T23:20:00.872Z,40.80
2018-09-11T23:22:29.757Z,40.80
2018-09-11T23:24:58.630Z,40.70
2018-09-11T23:27:27.546Z,42.00
2018-09-11T23:29:56.434Z,42.90
2018-09-11T23:32:25.542Z,42.80
2018-09-11T23:34:54.422Z,42.40
2018-09-11T23:37:23.306Z,42.00
2018-09-11T23:39:52.199Z,41.80
2018-09-11T23:42:21.075Z,42.00
2018-09-11T23:44:49.965Z,42.40
2018-09-11T23:47:18.974Z,41.70
2018-09-11T23:49:47.891Z,42.80
2018-09-11T23:52:16.787Z,42.70
2018-09-11T23:54:45.676Z,43.90
2018-09-11T23:57:14.591Z,44.60
2018-09-11T23:59:43.678Z,45.60
